sensor_id;sensor_type;location;lat;lon;timestamp;P1;durP1;ratioP1;P2;durP2;ratioP2
12958;SDS011;6544;51.666;6.634;2023-08-24T00:00:24;9.45;;;5.90;;
12958;SDS011;6544;51.666;6.634;2023-08-24T00:02:50;7.53;;;5.28;;
12958;SDS011;6544;51.666;6.634;2023-08-24T00:05:19;10.00;;;6.07;;
12958;SDS011;6544;51.666;6.634;2023-08-24T00:07:46;9.00;;;5.60;;
12958;SDS011;6544;51.666;6.634;2023-08-24T00:10:13;11.23;;;6.20;;
12958;SDS011;6544;51.666;6.634;2023-08-24T00:12:40;7.60;;;5.60;;
12958;SDS011;6544;51.666;6.634;2023-08-24T00:15:08;8.85;;;6.38;;
12958;SDS011;6544;51.666;6.634;2023-08-24T00:17:36;7.47;;;5.43;;
12958;SDS011;6544;51.666;6.634;2023-08-24T00:20:04;8.93;;;5.95;;
12958;SDS011;6544;51.666;6.634;2023-08-24T00:22:37;8.88;;;5.50;;
12958;SDS011;6544;51.666;6.634;2023-08-24T00:25:04;10.15;;;6.72;;
12958;SDS011;6544;51.666;6.634;2023-08-24T00:27:32;10.43;;;6.13;;
12958;SDS011;6544;51.666;6.634;2023-08-24T00:29:59;8.93;;;5.88;;
12958;SDS011;6544;51.666;6.634;2023-08-24T00:32:26;10.75;;;6.65;;
12958;SDS011;6544;51.666;6.634;2023-08-24T00:34:53;8.60;;;6.20;;
12958;SDS011;6544;51.666;6.634;2023-08-24T00:37:20;12.82;;;6.57;;
12958;SDS011;6544;51.666;6.634;2023-08-24T00:39:48;10.40;;;6.55;;
12958;SDS011;6544;51.666;6.634;2023-08-24T00:42:15;8.98;;;6.65;;
12958;SDS011;6544;51.666;6.634;2023-08-24T00:44:41;11.45;;;6.65;;
12958;SDS011;6544;51.666;6.634;2023-08-24T00:47:09;10.65;;;6.68;;
12958;SDS011;6544;51.666;6.634;2023-08-24T00:49:37;11.13;;;7.13;;
12958;SDS011;6544;51.666;6.634;2023-08-24T00:52:04;11.20;;;7.15;;
12958;SDS011;6544;51.666;6.634;2023-08-24T00:54:31;8.70;;;6.40;;
12958;SDS011;6544;51.666;6.634;2023-08-24T00:57:00;9.43;;;6.60;;
12958;SDS011;6544;51.666;6.634;2023-08-24T00:59:27;10.38;;;6.57;;
12958;SDS011;6544;51.666;6.634;2023-08-24T01:01:54;13.10;;;7.07;;
12958;SDS011;6544;51.666;6.634;2023-08-24T01:04:22;12.57;;;7.10;;
12958;SDS011;6544;51.666;6.634;2023-08-24T01:06:49;13.95;;;7.53;;
12958;SDS011;6544;51.666;6.634;2023-08-24T01:09:17;8.93;;;6.63;;
12958;SDS011;6544;51.666;6.634;2023-08-24T01:11:52;9.90;;;6.93;;
12958;SDS011;6544;51.666;6.634;2023-08-24T01:14:30;13.32;;;7.15;;
12958;SDS011;6544;51.666;6.634;2023-08-24T01:17:05;9.20;;;7.70;;
12958;SDS011;6544;51.666;6.634;2023-08-24T01:19:38;8.80;;;7.38;;
12958;SDS011;6544;51.666;6.634;2023-08-24T01:22:08;10.85;;;7.53;;
12958;SDS011;6544;51.666;6.634;2023-08-24T01:24:52;12.85;;;8.75;;
12958;SDS011;6544;51.666;6.634;2023-08-24T01:27:24;11.45;;;7.28;;
12958;SDS011;6544;51.666;6.634;2023-08-24T01:29:52;7.95;;;7.15;;
12958;SDS011;6544;51.666;6.634;2023-08-24T01:32:22;10.30;;;7.15;;
12958;SDS011;6544;51.666;6.634;2023-08-24T01:34:48;10.68;;;7.93;;
12958;SDS011;6544;51.666;6.634;2023-08-24T01:37:16;8.73;;;7.28;;
12958;SDS011;6544;51.666;6.634;2023-08-24T01:39:46;11.80;;;7.93;;
12958;SDS011;6544;51.666;6.634;2023-08-24T01:42:18;11.52;;;7.80;;
12958;SDS011;6544;51.666;6.634;2023-08-24T01:44:54;9.07;;;7.55;;
12958;SDS011;6544;51.666;6.634;2023-08-24T01:47:24;8.18;;;7.25;;
12958;SDS011;6544;51.666;6.634;2023-08-24T01:49:53;8.93;;;7.13;;
12958;SDS011;6544;51.666;6.634;2023-08-24T01:52:21;8.20;;;7.40;;
12958;SDS011;6544;51.666;6.634;2023-08-24T01:54:48;9.60;;;7.43;;
12958;SDS011;6544;51.666;6.634;2023-08-24T01:57:15;10.27;;;7.45;;
12958;SDS011;6544;51.666;6.634;2023-08-24T01:59:42;11.35;;;8.05;;
12958;SDS011;6544;51.666;6.634;2023-08-24T02:02:10;14.20;;;8.45;;
12958;SDS011;6544;51.666;6.634;2023-08-24T02:04:37;11.98;;;8.02;;
12958;SDS011;6544;51.666;6.634;2023-08-24T02:07:04;10.35;;;8.18;;
12958;SDS011;6544;51.666;6.634;2023-08-24T02:09:31;13.68;;;8.32;;
12958;SDS011;6544;51.666;6.634;2023-08-24T02:11:58;13.40;;;7.75;;
12958;SDS011;6544;51.666;6.634;2023-08-24T02:14:25;9.48;;;8.05;;
12958;SDS011;6544;51.666;6.634;2023-08-24T02:16:52;11.00;;;8.20;;
12958;SDS011;6544;51.666;6.634;2023-08-24T02:19:20;11.35;;;8.02;;
12958;SDS011;6544;51.666;6.634;2023-08-24T02:21:47;11.35;;;8.43;;
12958;SDS011;6544;51.666;6.634;2023-08-24T02:24:14;10.55;;;7.63;;
12958;SDS011;6544;51.666;6.634;2023-08-24T02:26:41;12.30;;;8.00;;
12958;SDS011;6544;51.666;6.634;2023-08-24T02:29:08;14.43;;;8.52;;
12958;SDS011;6544;51.666;6.634;2023-08-24T02:31:35;12.07;;;8.57;;
12958;SDS011;6544;51.666;6.634;2023-08-24T02:34:02;11.90;;;9.00;;
12958;SDS011;6544;51.666;6.634;2023-08-24T02:36:30;13.50;;;8.88;;
12958;SDS011;6544;51.666;6.634;2023-08-24T02:38:58;15.27;;;9.10;;
12958;SDS011;6544;51.666;6.634;2023-08-24T02:41:25;11.20;;;8.00;;
12958;SDS011;6544;51.666;6.634;2023-08-24T02:43:52;10.60;;;8.60;;
12958;SDS011;6544;51.666;6.634;2023-08-24T02:46:20;11.70;;;8.18;;
12958;SDS011;6544;51.666;6.634;2023-08-24T02:48:47;11.85;;;8.90;;
12958;SDS011;6544;51.666;6.634;2023-08-24T02:51:14;13.90;;;8.73;;
12958;SDS011;6544;51.666;6.634;2023-08-24T02:53:43;12.30;;;8.85;;
12958;SDS011;6544;51.666;6.634;2023-08-24T02:56:10;11.70;;;8.52;;
12958;SDS011;6544;51.666;6.634;2023-08-24T02:58:37;12.15;;;8.73;;
12958;SDS011;6544;51.666;6.634;2023-08-24T03:01:04;12.93;;;8.80;;
12958;SDS011;6544;51.666;6.634;2023-08-24T03:03:32;11.52;;;8.27;;
12958;SDS011;6544;51.666;6.634;2023-08-24T03:06:00;13.73;;;8.85;;
12958;SDS011;6544;51.666;6.634;2023-08-24T03:08:28;13.55;;;9.10;;
12958;SDS011;6544;51.666;6.634;2023-08-24T03:10:57;11.88;;;8.68;;
12958;SDS011;6544;51.666;6.634;2023-08-24T03:13:24;13.75;;;8.25;;
12958;SDS011;6544;51.666;6.634;2023-08-24T03:15:51;12.65;;;8.85;;
12958;SDS011;6544;51.666;6.634;2023-08-24T03:18:18;10.65;;;8.38;;
12958;SDS011;6544;51.666;6.634;2023-08-24T03:20:46;9.98;;;8.57;;
12958;SDS011;6544;51.666;6.634;2023-08-24T03:23:14;11.25;;;8.48;;
12958;SDS011;6544;51.666;6.634;2023-08-24T03:25:42;13.68;;;9.07;;
12958;SDS011;6544;51.666;6.634;2023-08-24T03:28:10;11.85;;;8.85;;
12958;SDS011;6544;51.666;6.634;2023-08-24T03:30:38;11.52;;;8.63;;
12958;SDS011;6544;51.666;6.634;2023-08-24T03:33:05;12.48;;;9.20;;
12958;SDS011;6544;51.666;6.634;2023-08-24T03:35:32;13.52;;;9.35;;
12958;SDS011;6544;51.666;6.634;2023-08-24T03:38:00;13.23;;;9.35;;
12958;SDS011;6544;51.666;6.634;2023-08-24T03:40:28;14.75;;;8.95;;
12958;SDS011;6544;51.666;6.634;2023-08-24T03:42:55;9.95;;;8.45;;
12958;SDS011;6544;51.666;6.634;2023-08-24T03:45:23;14.25;;;8.82;;
12958;SDS011;6544;51.666;6.634;2023-08-24T03:47:50;15.07;;;8.52;;
12958;SDS011;6544;51.666;6.634;2023-08-24T03:50:17;13.55;;;9.23;;
12958;SDS011;6544;51.666;6.634;2023-08-24T03:52:44;12.85;;;8.75;;
12958;SDS011;6544;51.666;6.634;2023-08-24T03:55:11;12.63;;;8.93;;
12958;SDS011;6544;51.666;6.634;2023-08-24T03:57:38;13.05;;;9.20;;
12958;SDS011;6544;51.666;6.634;2023-08-24T04:00:05;11.85;;;8.77;;
12958;SDS011;6544;51.666;6.634;2023-08-24T04:02:37;14.52;;;9.25;;
12958;SDS011;6544;51.666;6.634;2023-08-24T04:05:04;14.70;;;9.40;;
12958;SDS011;6544;51.666;6.634;2023-08-24T04:07:32;11.40;;;9.07;;
12958;SDS011;6544;51.666;6.634;2023-08-24T04:10:01;13.77;;;9.23;;
12958;SDS011;6544;51.666;6.634;2023-08-24T04:12:29;13.00;;;9.10;;
12958;SDS011;6544;51.666;6.634;2023-08-24T04:14:56;12.23;;;8.75;;
12958;SDS011;6544;51.666;6.634;2023-08-24T04:17:23;10.18;;;8.23;;
12958;SDS011;6544;51.666;6.634;2023-08-24T04:19:52;10.30;;;8.48;;
12958;SDS011;6544;51.666;6.634;2023-08-24T04:22:18;10.43;;;8.32;;
12958;SDS011;6544;51.666;6.634;2023-08-24T04:24:45;11.25;;;8.63;;
12958;SDS011;6544;51.666;6.634;2023-08-24T04:27:12;11.82;;;8.70;;
12958;SDS011;6544;51.666;6.634;2023-08-24T04:29:39;12.60;;;9.38;;
12958;SDS011;6544;51.666;6.634;2023-08-24T04:32:06;10.77;;;8.48;;
12958;SDS011;6544;51.666;6.634;2023-08-24T04:34:33;12.07;;;8.82;;
12958;SDS011;6544;51.666;6.634;2023-08-24T04:37:01;11.18;;;8.80;;
12958;SDS011;6544;51.666;6.634;2023-08-24T04:39:28;11.30;;;9.13;;
12958;SDS011;6544;51.666;6.634;2023-08-24T04:41:55;11.25;;;9.85;;
12958;SDS011;6544;51.666;6.634;2023-08-24T04:44:22;12.50;;;9.60;;
12958;SDS011;6544;51.666;6.634;2023-08-24T04:46:49;12.43;;;10.15;;
12958;SDS011;6544;51.666;6.634;2023-08-24T04:49:16;12.55;;;9.98;;
12958;SDS011;6544;51.666;6.634;2023-08-24T04:51:43;14.23;;;10.65;;
12958;SDS011;6544;51.666;6.634;2023-08-24T04:54:11;13.65;;;10.02;;
12958;SDS011;6544;51.666;6.634;2023-08-24T04:56:38;13.75;;;10.30;;
12958;SDS011;6544;51.666;6.634;2023-08-24T04:59:05;15.40;;;11.18;;
12958;SDS011;6544;51.666;6.634;2023-08-24T05:01:33;20.05;;;11.38;;
12958;SDS011;6544;51.666;6.634;2023-08-24T05:04:00;13.68;;;11.07;;
12958;SDS011;6544;51.666;6.634;2023-08-24T05:06:27;14.57;;;10.82;;
12958;SDS011;6544;51.666;6.634;2023-08-24T05:08:54;20.25;;;10.88;;
12958;SDS011;6544;51.666;6.634;2023-08-24T05:11:23;15.18;;;11.18;;
12958;SDS011;6544;51.666;6.634;2023-08-24T05:13:54;14.13;;;11.65;;
12958;SDS011;6544;51.666;6.634;2023-08-24T05:16:21;13.05;;;10.73;;
12958;SDS011;6544;51.666;6.634;2023-08-24T05:18:48;17.27;;;12.15;;
12958;SDS011;6544;51.666;6.634;2023-08-24T05:21:15;18.00;;;11.20;;
12958;SDS011;6544;51.666;6.634;2023-08-24T05:23:42;17.40;;;11.30;;
12958;SDS011;6544;51.666;6.634;2023-08-24T05:26:09;15.20;;;10.90;;
12958;SDS011;6544;51.666;6.634;2023-08-24T05:28:38;12.45;;;10.55;;
12958;SDS011;6544;51.666;6.634;2023-08-24T05:31:05;13.43;;;10.63;;
12958;SDS011;6544;51.666;6.634;2023-08-24T05:33:31;13.27;;;10.90;;
12958;SDS011;6544;51.666;6.634;2023-08-24T05:35:58;12.60;;;10.77;;
12958;SDS011;6544;51.666;6.634;2023-08-24T05:38:25;12.25;;;10.95;;
12958;SDS011;6544;51.666;6.634;2023-08-24T05:40:52;13.70;;;10.57;;
12958;SDS011;6544;51.666;6.634;2023-08-24T05:43:19;14.95;;;11.00;;
12958;SDS011;6544;51.666;6.634;2023-08-24T05:45:47;13.40;;;11.50;;
12958;SDS011;6544;51.666;6.634;2023-08-24T05:48:14;12.65;;;11.45;;
12958;SDS011;6544;51.666;6.634;2023-08-24T05:50:42;13.40;;;10.55;;
12958;SDS011;6544;51.666;6.634;2023-08-24T05:53:09;16.30;;;11.75;;
12958;SDS011;6544;51.666;6.634;2023-08-24T05:55:36;14.20;;;12.00;;
12958;SDS011;6544;51.666;6.634;2023-08-24T05:58:03;15.00;;;12.23;;
12958;SDS011;6544;51.666;6.634;2023-08-24T06:00:30;13.82;;;11.55;;
12958;SDS011;6544;51.666;6.634;2023-08-24T06:02:59;14.15;;;11.43;;
12958;SDS011;6544;51.666;6.634;2023-08-24T06:05:26;20.00;;;11.43;;
12958;SDS011;6544;51.666;6.634;2023-08-24T06:07:53;13.48;;;11.95;;
12958;SDS011;6544;51.666;6.634;2023-08-24T06:10:20;12.95;;;11.55;;
12958;SDS011;6544;51.666;6.634;2023-08-24T06:12:47;16.38;;;11.80;;
12958;SDS011;6544;51.666;6.634;2023-08-24T06:15:14;16.50;;;12.32;;
12958;SDS011;6544;51.666;6.634;2023-08-24T06:17:41;12.93;;;11.55;;
12958;SDS011;6544;51.666;6.634;2023-08-24T06:20:10;13.40;;;12.05;;
12958;SDS011;6544;51.666;6.634;2023-08-24T06:22:38;17.30;;;12.63;;
12958;SDS011;6544;51.666;6.634;2023-08-24T06:25:05;15.45;;;12.85;;
12958;SDS011;6544;51.666;6.634;2023-08-24T06:27:34;16.13;;;12.30;;
12958;SDS011;6544;51.666;6.634;2023-08-24T06:30:02;18.15;;;12.25;;
12958;SDS011;6544;51.666;6.634;2023-08-24T06:32:30;14.55;;;12.48;;
12958;SDS011;6544;51.666;6.634;2023-08-24T06:34:57;17.63;;;12.68;;
12958;SDS011;6544;51.666;6.634;2023-08-24T06:37:26;15.52;;;12.75;;
12958;SDS011;6544;51.666;6.634;2023-08-24T06:39:53;17.60;;;13.10;;
12958;SDS011;6544;51.666;6.634;2023-08-24T06:42:20;21.02;;;13.13;;
12958;SDS011;6544;51.666;6.634;2023-08-24T06:44:46;14.75;;;12.48;;
12958;SDS011;6544;51.666;6.634;2023-08-24T06:47:15;16.02;;;12.60;;
12958;SDS011;6544;51.666;6.634;2023-08-24T06:49:42;18.52;;;13.00;;
12958;SDS011;6544;51.666;6.634;2023-08-24T06:52:08;17.52;;;13.15;;
12958;SDS011;6544;51.666;6.634;2023-08-24T06:54:37;20.00;;;12.40;;
12958;SDS011;6544;51.666;6.634;2023-08-24T06:57:04;14.15;;;11.65;;
12958;SDS011;6544;51.666;6.634;2023-08-24T06:59:31;13.98;;;11.93;;
12958;SDS011;6544;51.666;6.634;2023-08-24T07:01:58;17.83;;;11.00;;
12958;SDS011;6544;51.666;6.634;2023-08-24T07:04:25;16.33;;;11.10;;
12958;SDS011;6544;51.666;6.634;2023-08-24T07:06:52;13.98;;;10.60;;
12958;SDS011;6544;51.666;6.634;2023-08-24T07:09:19;14.68;;;10.48;;
12958;SDS011;6544;51.666;6.634;2023-08-24T07:11:48;16.95;;;10.63;;
12958;SDS011;6544;51.666;6.634;2023-08-24T07:14:15;14.07;;;10.13;;
12958;SDS011;6544;51.666;6.634;2023-08-24T07:16:42;12.20;;;8.82;;
12958;SDS011;6544;51.666;6.634;2023-08-24T07:19:09;12.23;;;8.82;;
12958;SDS011;6544;51.666;6.634;2023-08-24T07:21:36;13.48;;;8.75;;
12958;SDS011;6544;51.666;6.634;2023-08-24T07:24:03;11.52;;;8.10;;
12958;SDS011;6544;51.666;6.634;2023-08-24T07:26:30;9.38;;;7.40;;
12958;SDS011;6544;51.666;6.634;2023-08-24T07:28:59;15.30;;;8.32;;
12958;SDS011;6544;51.666;6.634;2023-08-24T07:31:26;8.55;;;7.63;;
12958;SDS011;6544;51.666;6.634;2023-08-24T07:33:53;11.30;;;7.55;;
12958;SDS011;6544;51.666;6.634;2023-08-24T07:36:20;12.93;;;8.20;;
12958;SDS011;6544;51.666;6.634;2023-08-24T07:38:47;10.63;;;7.78;;
12958;SDS011;6544;51.666;6.634;2023-08-24T07:41:14;11.98;;;8.68;;
12958;SDS011;6544;51.666;6.634;2023-08-24T07:43:43;11.73;;;7.88;;
12958;SDS011;6544;51.666;6.634;2023-08-24T07:46:11;10.93;;;7.82;;
12958;SDS011;6544;51.666;6.634;2023-08-24T07:48:38;10.57;;;7.90;;
12958;SDS011;6544;51.666;6.634;2023-08-24T07:51:07;13.10;;;8.23;;
12958;SDS011;6544;51.666;6.634;2023-08-24T07:53:34;12.45;;;7.72;;
12958;SDS011;6544;51.666;6.634;2023-08-24T07:56:01;10.43;;;7.35;;
12958;SDS011;6544;51.666;6.634;2023-08-24T07:58:28;14.93;;;7.35;;
12958;SDS011;6544;51.666;6.634;2023-08-24T08:00:56;8.88;;;6.68;;
12958;SDS011;6544;51.666;6.634;2023-08-24T08:03:24;8.88;;;6.55;;
12958;SDS011;6544;51.666;6.634;2023-08-24T08:05:52;9.90;;;6.72;;
12958;SDS011;6544;51.666;6.634;2023-08-24T08:08:19;12.35;;;6.65;;
12958;SDS011;6544;51.666;6.634;2023-08-24T08:10:46;10.13;;;6.10;;
12958;SDS011;6544;51.666;6.634;2023-08-24T08:13:13;9.63;;;5.88;;
12958;SDS011;6544;51.666;6.634;2023-08-24T08:15:40;9.25;;;5.43;;
12958;SDS011;6544;51.666;6.634;2023-08-24T08:18:07;11.95;;;6.40;;
12958;SDS011;6544;51.666;6.634;2023-08-24T08:20:35;11.75;;;6.25;;
12958;SDS011;6544;51.666;6.634;2023-08-24T08:23:02;12.02;;;5.28;;
12958;SDS011;6544;51.666;6.634;2023-08-24T08:25:29;9.65;;;5.22;;
12958;SDS011;6544;51.666;6.634;2023-08-24T08:27:56;9.77;;;5.22;;
12958;SDS011;6544;51.666;6.634;2023-08-24T08:30:23;11.15;;;5.70;;
12958;SDS011;6544;51.666;6.634;2023-08-24T08:32:50;11.73;;;5.63;;
12958;SDS011;6544;51.666;6.634;2023-08-24T08:35:17;9.70;;;5.45;;
12958;SDS011;6544;51.666;6.634;2023-08-24T08:37:46;9.88;;;5.40;;
12958;SDS011;6544;51.666;6.634;2023-08-24T08:40:14;9.85;;;5.35;;
12958;SDS011;6544;51.666;6.634;2023-08-24T08:42:42;6.28;;;4.50;;
12958;SDS011;6544;51.666;6.634;2023-08-24T08:45:10;7.82;;;4.20;;
12958;SDS011;6544;51.666;6.634;2023-08-24T08:47:37;11.88;;;5.15;;
12958;SDS011;6544;51.666;6.634;2023-08-24T08:50:06;9.32;;;4.90;;
12958;SDS011;6544;51.666;6.634;2023-08-24T08:52:34;10.75;;;5.50;;
12958;SDS011;6544;51.666;6.634;2023-08-24T08:55:02;8.60;;;4.47;;
12958;SDS011;6544;51.666;6.634;2023-08-24T08:57:31;8.48;;;4.45;;
12958;SDS011;6544;51.666;6.634;2023-08-24T08:59:59;9.63;;;4.35;;
12958;SDS011;6544;51.666;6.634;2023-08-24T09:02:27;10.13;;;4.45;;
12958;SDS011;6544;51.666;6.634;2023-08-24T09:04:57;12.63;;;4.97;;
12958;SDS011;6544;51.666;6.634;2023-08-24T09:07:23;8.25;;;4.30;;
12958;SDS011;6544;51.666;6.634;2023-08-24T09:09:51;9.30;;;4.50;;
12958;SDS011;6544;51.666;6.634;2023-08-24T09:12:20;8.52;;;4.13;;
12958;SDS011;6544;51.666;6.634;2023-08-24T09:14:47;11.45;;;4.25;;
12958;SDS011;6544;51.666;6.634;2023-08-24T09:17:23;8.48;;;4.45;;
12958;SDS011;6544;51.666;6.634;2023-08-24T09:19:50;13.18;;;4.78;;
12958;SDS011;6544;51.666;6.634;2023-08-24T09:22:17;7.25;;;3.92;;
12958;SDS011;6544;51.666;6.634;2023-08-24T09:24:48;12.35;;;4.80;;
12958;SDS011;6544;51.666;6.634;2023-08-24T09:27:16;9.48;;;4.20;;
12958;SDS011;6544;51.666;6.634;2023-08-24T09:29:48;10.77;;;4.45;;
12958;SDS011;6544;51.666;6.634;2023-08-24T09:32:20;10.88;;;4.72;;
12958;SDS011;6544;51.666;6.634;2023-08-24T09:34:48;7.32;;;3.53;;
12958;SDS011;6544;51.666;6.634;2023-08-24T09:37:15;8.93;;;4.07;;
12958;SDS011;6544;51.666;6.634;2023-08-24T09:39:42;10.73;;;4.13;;
12958;SDS011;6544;51.666;6.634;2023-08-24T09:42:10;6.65;;;3.55;;
12958;SDS011;6544;51.666;6.634;2023-08-24T09:44:37;10.05;;;3.72;;
12958;SDS011;6544;51.666;6.634;2023-08-24T09:47:10;6.05;;;3.22;;
12958;SDS011;6544;51.666;6.634;2023-08-24T09:49:37;11.93;;;4.03;;
12958;SDS011;6544;51.666;6.634;2023-08-24T09:52:06;7.75;;;3.80;;
12958;SDS011;6544;51.666;6.634;2023-08-24T09:54:36;8.45;;;3.22;;
12958;SDS011;6544;51.666;6.634;2023-08-24T09:57:04;8.73;;;3.72;;
12958;SDS011;6544;51.666;6.634;2023-08-24T09:59:34;6.72;;;3.42;;
12958;SDS011;6544;51.666;6.634;2023-08-24T10:02:04;5.57;;;3.50;;
12958;SDS011;6544;51.666;6.634;2023-08-24T10:04:41;6.28;;;3.53;;
12958;SDS011;6544;51.666;6.634;2023-08-24T10:07:10;6.47;;;3.20;;
12958;SDS011;6544;51.666;6.634;2023-08-24T10:09:44;6.45;;;3.30;;
12958;SDS011;6544;51.666;6.634;2023-08-24T10:12:19;8.27;;;3.42;;
12958;SDS011;6544;51.666;6.634;2023-08-24T10:14:51;7.28;;;3.72;;
12958;SDS011;6544;51.666;6.634;2023-08-24T10:17:24;6.35;;;3.45;;
12958;SDS011;6544;51.666;6.634;2023-08-24T10:19:51;6.75;;;4.07;;
12958;SDS011;6544;51.666;6.634;2023-08-24T10:22:18;8.07;;;3.70;;
12958;SDS011;6544;51.666;6.634;2023-08-24T10:24:46;6.28;;;3.47;;
12958;SDS011;6544;51.666;6.634;2023-08-24T10:27:14;6.63;;;3.70;;
12958;SDS011;6544;51.666;6.634;2023-08-24T10:29:42;7.32;;;3.70;;
12958;SDS011;6544;51.666;6.634;2023-08-24T10:32:09;8.20;;;3.80;;
12958;SDS011;6544;51.666;6.634;2023-08-24T10:34:38;7.78;;;3.70;;
12958;SDS011;6544;51.666;6.634;2023-08-24T10:37:08;4.22;;;3.50;;
12958;SDS011;6544;51.666;6.634;2023-08-24T10:39:36;8.35;;;3.90;;
12958;SDS011;6544;51.666;6.634;2023-08-24T10:42:10;5.03;;;3.40;;
12958;SDS011;6544;51.666;6.634;2023-08-24T10:44:38;5.13;;;3.42;;
12958;SDS011;6544;51.666;6.634;2023-08-24T10:47:13;8.45;;;3.90;;
12958;SDS011;6544;51.666;6.634;2023-08-24T10:49:42;4.32;;;3.30;;
12958;SDS011;6544;51.666;6.634;2023-08-24T10:52:16;7.05;;;3.80;;
12958;SDS011;6544;51.666;6.634;2023-08-24T10:54:44;8.70;;;3.95;;
12958;SDS011;6544;51.666;6.634;2023-08-24T10:57:17;6.68;;;3.50;;
12958;SDS011;6544;51.666;6.634;2023-08-24T10:59:45;8.20;;;3.92;;
12958;SDS011;6544;51.666;6.634;2023-08-24T11:02:23;6.68;;;3.80;;
12958;SDS011;6544;51.666;6.634;2023-08-24T11:05:07;6.50;;;3.78;;
12958;SDS011;6544;51.666;6.634;2023-08-24T11:10:30;6.38;;;3.25;;
12958;SDS011;6544;51.666;6.634;2023-08-24T11:13:06;6.45;;;3.38;;
12958;SDS011;6544;51.666;6.634;2023-08-24T11:15:33;8.88;;;3.60;;
12958;SDS011;6544;51.666;6.634;2023-08-24T11:18:13;7.75;;;3.60;;
12958;SDS011;6544;51.666;6.634;2023-08-24T11:20:46;8.10;;;3.67;;
12958;SDS011;6544;51.666;6.634;2023-08-24T11:23:14;6.75;;;3.33;;
12958;SDS011;6544;51.666;6.634;2023-08-24T11:25:42;6.10;;;3.72;;
12958;SDS011;6544;51.666;6.634;2023-08-24T11:28:09;10.18;;;3.97;;
12958;SDS011;6544;51.666;6.634;2023-08-24T11:30:36;5.95;;;3.58;;
12958;SDS011;6544;51.666;6.634;2023-08-24T11:33:03;10.38;;;3.80;;
12958;SDS011;6544;51.666;6.634;2023-08-24T11:35:34;7.72;;;3.97;;
12958;SDS011;6544;51.666;6.634;2023-08-24T11:38:03;8.70;;;3.75;;
12958;SDS011;6544;51.666;6.634;2023-08-24T11:40:30;9.30;;;3.90;;
12958;SDS011;6544;51.666;6.634;2023-08-24T11:42:57;7.07;;;3.75;;
12958;SDS011;6544;51.666;6.634;2023-08-24T11:45:29;9.13;;;3.80;;
12958;SDS011;6544;51.666;6.634;2023-08-24T11:47:57;6.93;;;3.92;;
12958;SDS011;6544;51.666;6.634;2023-08-24T11:50:25;8.90;;;3.80;;
12958;SDS011;6544;51.666;6.634;2023-08-24T11:52:53;7.45;;;3.83;;
12958;SDS011;6544;51.666;6.634;2023-08-24T11:55:22;10.07;;;3.83;;
12958;SDS011;6544;51.666;6.634;2023-08-24T11:57:49;8.75;;;3.50;;
12958;SDS011;6544;51.666;6.634;2023-08-24T12:00:16;8.00;;;3.30;;
12958;SDS011;6544;51.666;6.634;2023-08-24T12:02:45;8.35;;;3.30;;
12958;SDS011;6544;51.666;6.634;2023-08-24T12:05:22;4.93;;;2.85;;
12958;SDS011;6544;51.666;6.634;2023-08-24T12:07:50;5.68;;;3.00;;
12958;SDS011;6544;51.666;6.634;2023-08-24T12:10:18;6.53;;;3.35;;
12958;SDS011;6544;51.666;6.634;2023-08-24T12:12:46;5.82;;;3.20;;
12958;SDS011;6544;51.666;6.634;2023-08-24T12:15:17;6.50;;;3.25;;
12958;SDS011;6544;51.666;6.634;2023-08-24T12:17:45;5.28;;;3.50;;
12958;SDS011;6544;51.666;6.634;2023-08-24T12:20:19;7.25;;;3.45;;
12958;SDS011;6544;51.666;6.634;2023-08-24T12:22:51;7.20;;;3.15;;
12958;SDS011;6544;51.666;6.634;2023-08-24T12:25:21;9.85;;;3.75;;
12958;SDS011;6544;51.666;6.634;2023-08-24T12:27:50;9.35;;;3.70;;
12958;SDS011;6544;51.666;6.634;2023-08-24T12:30:18;8.45;;;3.67;;
12958;SDS011;6544;51.666;6.634;2023-08-24T12:32:46;6.18;;;3.50;;
12958;SDS011;6544;51.666;6.634;2023-08-24T12:35:15;7.80;;;3.70;;
12958;SDS011;6544;51.666;6.634;2023-08-24T12:37:42;8.65;;;3.53;;
12958;SDS011;6544;51.666;6.634;2023-08-24T12:40:11;9.85;;;3.17;;
12958;SDS011;6544;51.666;6.634;2023-08-24T12:42:40;8.80;;;3.50;;
12958;SDS011;6544;51.666;6.634;2023-08-24T12:45:08;6.85;;;3.35;;
12958;SDS011;6544;51.666;6.634;2023-08-24T12:47:35;6.75;;;3.42;;
12958;SDS011;6544;51.666;6.634;2023-08-24T12:50:05;8.02;;;3.08;;
12958;SDS011;6544;51.666;6.634;2023-08-24T12:52:33;6.10;;;3.20;;
12958;SDS011;6544;51.666;6.634;2023-08-24T12:55:00;6.38;;;2.95;;
12958;SDS011;6544;51.666;6.634;2023-08-24T12:57:28;4.90;;;3.35;;
12958;SDS011;6544;51.666;6.634;2023-08-24T12:59:55;5.93;;;3.67;;
12958;SDS011;6544;51.666;6.634;2023-08-24T13:02:23;6.95;;;3.30;;
12958;SDS011;6544;51.666;6.634;2023-08-24T13:04:50;7.47;;;3.40;;
12958;SDS011;6544;51.666;6.634;2023-08-24T13:07:16;6.22;;;3.45;;
12958;SDS011;6544;51.666;6.634;2023-08-24T13:09:43;6.30;;;3.28;;
12958;SDS011;6544;51.666;6.634;2023-08-24T13:12:10;7.82;;;3.45;;
12958;SDS011;6544;51.666;6.634;2023-08-24T13:14:37;4.55;;;3.33;;
12958;SDS011;6544;51.666;6.634;2023-08-24T13:17:04;8.38;;;3.92;;
12958;SDS011;6544;51.666;6.634;2023-08-24T13:19:33;4.82;;;3.20;;
12958;SDS011;6544;51.666;6.634;2023-08-24T13:22:00;8.13;;;3.67;;
12958;SDS011;6544;51.666;6.634;2023-08-24T13:24:27;5.18;;;3.35;;
12958;SDS011;6544;51.666;6.634;2023-08-24T13:26:55;6.45;;;3.53;;
12958;SDS011;6544;51.666;6.634;2023-08-24T13:29:22;10.82;;;4.07;;
12958;SDS011;6544;51.666;6.634;2023-08-24T13:31:50;7.90;;;3.40;;
12958;SDS011;6544;51.666;6.634;2023-08-24T13:34:17;8.35;;;3.90;;
12958;SDS011;6544;51.666;6.634;2023-08-24T13:36:46;7.85;;;3.60;;
12958;SDS011;6544;51.666;6.634;2023-08-24T13:39:13;10.82;;;3.90;;
12958;SDS011;6544;51.666;6.634;2023-08-24T13:41:40;8.57;;;3.75;;
12958;SDS011;6544;51.666;6.634;2023-08-24T13:44:07;9.77;;;4.40;;
12958;SDS011;6544;51.666;6.634;2023-08-24T13:46:35;13.20;;;4.70;;
12958;SDS011;6544;51.666;6.634;2023-08-24T13:49:02;9.65;;;3.97;;
12958;SDS011;6544;51.666;6.634;2023-08-24T13:51:29;6.90;;;3.20;;
12958;SDS011;6544;51.666;6.634;2023-08-24T13:53:57;7.05;;;3.65;;
12958;SDS011;6544;51.666;6.634;2023-08-24T13:56:24;8.15;;;3.85;;
12958;SDS011;6544;51.666;6.634;2023-08-24T13:58:51;6.68;;;3.80;;
12958;SDS011;6544;51.666;6.634;2023-08-24T14:01:18;7.78;;;3.72;;
12958;SDS011;6544;51.666;6.634;2023-08-24T14:03:45;6.68;;;3.78;;
12958;SDS011;6544;51.666;6.634;2023-08-24T14:06:12;7.82;;;3.58;;
12958;SDS011;6544;51.666;6.634;2023-08-24T14:08:38;6.68;;;3.42;;
12958;SDS011;6544;51.666;6.634;2023-08-24T14:11:08;5.82;;;3.60;;
12958;SDS011;6544;51.666;6.634;2023-08-24T14:13:35;5.28;;;3.53;;
12958;SDS011;6544;51.666;6.634;2023-08-24T14:16:02;6.55;;;3.63;;
12958;SDS011;6544;51.666;6.634;2023-08-24T14:18:29;5.65;;;3.05;;
12958;SDS011;6544;51.666;6.634;2023-08-24T14:20:56;5.85;;;3.28;;
12958;SDS011;6544;51.666;6.634;2023-08-24T14:23:23;6.15;;;3.22;;
12958;SDS011;6544;51.666;6.634;2023-08-24T14:25:49;8.02;;;2.97;;
12958;SDS011;6544;51.666;6.634;2023-08-24T14:28:19;8.05;;;3.42;;
12958;SDS011;6544;51.666;6.634;2023-08-24T14:30:47;8.30;;;3.40;;
12958;SDS011;6544;51.666;6.634;2023-08-24T14:33:14;5.13;;;3.08;;
12958;SDS011;6544;51.666;6.634;2023-08-24T14:35:41;6.10;;;2.80;;
12958;SDS011;6544;51.666;6.634;2023-08-24T14:38:16;6.53;;;3.20;;
12958;SDS011;6544;51.666;6.634;2023-08-24T14:40:43;8.32;;;3.35;;
12958;SDS011;6544;51.666;6.634;2023-08-24T14:43:10;10.88;;;2.60;;
12958;SDS011;6544;51.666;6.634;2023-08-24T14:45:38;5.35;;;3.08;;
12958;SDS011;6544;51.666;6.634;2023-08-24T14:48:06;6.43;;;3.10;;
12958;SDS011;6544;51.666;6.634;2023-08-24T14:50:32;6.60;;;3.45;;
12958;SDS011;6544;51.666;6.634;2023-08-24T14:52:59;7.07;;;3.13;;
12958;SDS011;6544;51.666;6.634;2023-08-24T14:55:29;10.73;;;3.53;;
12958;SDS011;6544;51.666;6.634;2023-08-24T14:57:56;9.23;;;3.40;;
12958;SDS011;6544;51.666;6.634;2023-08-24T15:00:24;7.40;;;3.45;;